createdAt,value
2024-04-18T00:00:39.931Z,101646.16
2024-04-18T00:03:11.543Z,101641.47
2024-04-18T00:05:42.216Z,101661.66
2024-04-18T00:08:10.513Z,101643.50
2024-04-18T00:10:44.552Z,101649.81
2024-04-18T00:13:12.641Z,101642.50
2024-04-18T00:15:40.980Z,101656.16
2024-04-18T00:18:11.517Z,101652.28
2024-04-18T00:20:39.172Z,101657.03
2024-04-18T00:23:07.173Z,101652.84
2024-04-18T00:25:36.654Z,101657.28
2024-04-18T00:28:08.627Z,101670.28
2024-04-18T00:30:36.444Z,101684.13
2024-04-18T00:33:05.132Z,101686.03
2024-04-18T00:35:33.145Z,101687.94
2024-04-18T00:38:02.857Z,101692.56
2024-04-18T00:40:32.039Z,101681.72
2024-04-18T00:43:00.759Z,101680.50
2024-04-18T00:45:31.844Z,101695.91
2024-04-18T00:48:00.442Z,101694.09
2024-04-18T00:50:29.482Z,101690.97
2024-04-18T00:52:58.262Z,101696.56
2024-04-18T00:55:28.281Z,101690.34
2024-04-18T00:57:57.591Z,101698.69
2024-04-18T01:00:26.045Z,101689.44
2024-04-18T01:03:00.582Z,101704.97
2024-04-18T01:05:28.820Z,101715.00
2024-04-18T01:07:56.654Z,101712.03
2024-04-18T01:10:24.055Z,101709.25
2024-04-18T01:13:00.142Z,101697.19
2024-04-18T01:15:27.929Z,101720.69
2024-04-18T01:17:56.391Z,101697.25
2024-04-18T01:20:27.388Z,101716.00
2024-04-18T01:22:57.658Z,101709.66
2024-04-18T01:25:28.458Z,101718.63
2024-04-18T01:27:59.221Z,101717.56
2024-04-18T01:30:27.934Z,101711.19
2024-04-18T01:32:59.635Z,101721.94
2024-04-18T01:35:29.864Z,101708.00
2024-04-18T01:37:57.458Z,101728.16
2024-04-18T01:40:30.731Z,101729.13
2024-04-18T01:43:04.957Z,101727.28
2024-04-18T01:45:33.108Z,101738.59
2024-04-18T01:48:02.016Z,101739.78
2024-04-18T01:50:31.300Z,101731.59
2024-04-18T01:53:03.929Z,101734.13
2024-04-18T01:55:32.189Z,101738.63
2024-04-18T01:58:04.774Z,101750.69
2024-04-18T02:00:32.910Z,101747.34
2024-04-18T02:03:02.395Z,101758.78
2024-04-18T02:05:31.726Z,101756.03
2024-04-18T02:08:00.906Z,101759.91
2024-04-18T02:10:28.823Z,101755.53
2024-04-18T02:12:58.333Z,101762.97
2024-04-18T02:15:28.998Z,101758.16
2024-04-18T02:18:08.237Z,101771.44
2024-04-18T02:20:35.957Z,101778.88
2024-04-18T02:23:04.044Z,101777.84
2024-04-18T02:25:32.686Z,101768.09
2024-04-18T02:28:03.642Z,101786.66
2024-04-18T02:30:37.971Z,101785.91
2024-04-18T02:33:07.212Z,101780.16
2024-04-18T02:35:35.473Z,101784.72
2024-04-18T02:38:06.355Z,101782.00
2024-04-18T02:40:37.654Z,101796.47
2024-04-18T02:43:08.586Z,101798.25
2024-04-18T02:45:45.065Z,101789.31
2024-04-18T02:48:16.314Z,101785.56
2024-04-18T02:50:47.712Z,101797.41
2024-04-18T02:53:18.526Z,101794.78
2024-04-18T02:55:49.151Z,101791.16
2024-04-18T02:58:17.128Z,101801.44
2024-04-18T03:00:48.356Z,101811.78
2024-04-18T03:03:16.359Z,101805.00
2024-04-18T03:05:44.261Z,101802.03
2024-04-18T03:08:12.500Z,101795.38
2024-04-18T03:10:48.724Z,101813.09
2024-04-18T03:13:16.876Z,101806.84
2024-04-18T03:15:51.021Z,101819.38
2024-04-18T03:18:18.917Z,101798.88
2024-04-18T03:20:53.241Z,101809.25
2024-04-18T03:23:21.182Z,101819.84
2024-04-18T03:25:51.246Z,101826.31
2024-04-18T03:28:19.281Z,101823.47
2024-04-18T03:30:49.737Z,101825.06
2024-04-18T03:33:17.939Z,101834.47
2024-04-18T03:35:46.665Z,101823.72
2024-04-18T03:38:17.606Z,101828.22
2024-04-18T03:40:54.995Z,101840.34
2024-04-18T03:43:22.823Z,101837.25
2024-04-18T03:45:59.700Z,101830.53
2024-04-18T03:48:28.203Z,101846.75
2024-04-18T03:50:56.972Z,101840.81
2024-04-18T03:53:27.961Z,101846.75
2024-04-18T03:55:56.427Z,101853.19
2024-04-18T03:58:27.673Z,101853.59
2024-04-18T04:00:58.249Z,101835.66
2024-04-18T04:03:27.651Z,101860.31
2024-04-18T04:05:55.846Z,101863.44
2024-04-18T04:08:27.603Z,101866.78
2024-04-18T04:10:56.024Z,101866.34
2024-04-18T04:13:31.030Z,101872.84
2024-04-18T04:16:01.581Z,101877.66
2024-04-18T04:18:29.618Z,101885.06
2024-04-18T04:20:57.898Z,101869.44
2024-04-18T04:23:26.291Z,101877.81
2024-04-18T04:25:55.015Z,101879.88
2024-04-18T04:28:27.672Z,101884.16
2024-04-18T04:30:55.728Z,101889.59
2024-04-18T04:33:29.560Z,101896.41
2024-04-18T04:35:58.171Z,101881.00
2024-04-18T04:38:26.626Z,101895.66
2024-04-18T04:40:54.287Z,101892.81
2024-04-18T04:43:22.628Z,101889.16
2024-04-18T04:45:54.396Z,101903.06
2024-04-18T04:48:23.015Z,101898.00
2024-04-18T04:51:11.635Z,101889.94
2024-04-18T04:53:39.954Z,101908.19
2024-04-18T04:56:14.865Z,101915.44
2024-04-18T04:58:45.749Z,101920.88
2024-04-18T05:01:14.230Z,101909.25
2024-04-18T05:03:42.329Z,101915.22
2024-04-18T05:06:13.201Z,101917.00
2024-04-18T05:08:44.269Z,101934.97
2024-04-18T05:11:12.729Z,101928.97
2024-04-18T05:13:44.035Z,101918.81
2024-04-18T05:16:17.237Z,101927.09
2024-04-18T05:18:47.683Z,101919.44
2024-04-18T05:21:20.741Z,101923.50
2024-04-18T05:23:51.814Z,101928.78
2024-04-18T05:26:19.918Z,101937.47
2024-04-18T05:29:06.811Z,101942.44
2024-04-18T05:31:39.690Z,101947.13
2024-04-18T05:34:09.395Z,101931.94
2024-04-18T05:36:41.103Z,101948.38
2024-04-18T05:39:15.431Z,101929.59
2024-04-18T05:41:43.088Z,101952.13
2024-04-18T05:44:11.260Z,101946.88
2024-04-18T05:46:47.549Z,101960.75
2024-04-18T05:49:17.710Z,101946.59
2024-04-18T05:51:48.720Z,101943.75
2024-04-18T05:54:16.723Z,101948.81
2024-04-18T05:56:44.928Z,101965.09
2024-04-18T05:59:13.180Z,101960.22
2024-04-18T06:01:42.916Z,101973.78
2024-04-18T06:04:10.688Z,101970.34
2024-04-18T06:06:41.842Z,101982.38
2024-04-18T06:09:12.781Z,101968.09
2024-04-18T06:11:44.842Z,101978.41
2024-04-18T06:14:20.199Z,101974.16
2024-04-18T06:16:48.309Z,101989.25
2024-04-18T06:19:16.497Z,101982.91
2024-04-18T06:21:44.511Z,101993.63
2024-04-18T06:24:15.213Z,101993.25
2024-04-18T06:26:46.366Z,101980.94
2024-04-18T06:29:18.308Z,101982.63
2024-04-18T06:31:46.652Z,101971.03
2024-04-18T06:34:17.222Z,101979.06
2024-04-18T06:36:47.449Z,101981.94
2024-04-18T06:39:20.779Z,101976.69
2024-04-18T06:41:48.332Z,101987.31
2024-04-18T06:44:16.508Z,101991.88
2024-04-18T06:46:52.777Z,101975.47
2024-04-18T06:49:27.984Z,101976.44
2024-04-18T06:52:01.476Z,101984.31
2024-04-18T06:54:32.459Z,101994.94
2024-04-18T06:57:00.817Z,101997.91
2024-04-18T06:59:28.486Z,101995.97
2024-04-18T07:01:57.720Z,102007.13
2024-04-18T07:04:26.237Z,101994.00
2024-04-18T07:06:54.665Z,101998.56
2024-04-18T07:09:22.970Z,101998.16
2024-04-18T07:11:53.445Z,102011.22
2024-04-18T07:14:22.056Z,101986.78
2024-04-18T07:16:50.294Z,102008.41
2024-04-18T07:19:18.688Z,102003.63
2024-04-18T07:21:47.692Z,101984.75
2024-04-18T07:24:15.875Z,101990.19
2024-04-18T07:26:44.374Z,101998.09
2024-04-18T07:29:15.416Z,102012.88
2024-04-18T07:31:45.601Z,102015.03
2024-04-18T07:34:14.195Z,102016.72
2024-04-18T07:36:41.958Z,101998.97
2024-04-18T07:39:11.235Z,102012.59
2024-04-18T07:41:39.751Z,102006.97
2024-04-18T07:44:13.581Z,101999.81
2024-04-18T07:46:52.528Z,102018.59
2024-04-18T07:49:28.670Z,102010.56
2024-04-18T07:52:06.458Z,102031.25
2024-04-18T07:54:49.065Z,102032.78
2024-04-18T07:57:25.271Z,102015.13
2024-04-18T07:59:56.926Z,102011.28
2024-04-18T08:02:32.064Z,102031.69
2024-04-18T08:05:11.468Z,102042.88
2024-04-18T08:08:01.267Z,102026.13
2024-04-18T08:10:45.991Z,102024.38
2024-04-18T08:13:30.336Z,102015.09
2024-04-18T08:16:05.030Z,102028.09
2024-04-18T08:18:35.892Z,102035.34
2024-04-18T08:21:10.723Z,102049.13
2024-04-18T08:23:40.672Z,102052.19
2024-04-18T08:26:10.449Z,102038.00
2024-04-18T08:28:38.306Z,102050.69
2024-04-18T08:31:06.591Z,102052.72
2024-04-18T08:33:37.397Z,102038.69
2024-04-18T08:36:06.444Z,102059.72
2024-04-18T08:38:34.717Z,102064.59
2024-04-18T08:41:12.036Z,102055.41
2024-04-18T08:43:43.585Z,102058.16
2024-04-18T08:46:12.983Z,102064.59
2024-04-18T08:48:44.284Z,102065.06
2024-04-18T08:51:15.548Z,102075.50
2024-04-18T08:53:43.268Z,102061.56
2024-04-18T08:56:17.823Z,102065.50
2024-04-18T08:58:46.065Z,102072.97
2024-04-18T09:01:14.260Z,102081.78
2024-04-18T09:03:47.671Z,102077.50
2024-04-18T09:06:18.536Z,102084.09
2024-04-18T09:08:46.407Z,102068.63
2024-04-18T09:11:15.892Z,102063.19
2024-04-18T09:13:43.787Z,102073.53
2024-04-18T09:16:11.727Z,102075.94
2024-04-18T09:18:40.294Z,102059.34
2024-04-18T09:21:13.377Z,102075.38
2024-04-18T09:23:44.431Z,102049.03
2024-04-18T09:26:15.175Z,102043.28
2024-04-18T09:28:48.503Z,102061.13
2024-04-18T09:31:30.382Z,102069.16
2024-04-18T09:34:04.671Z,102066.28
2024-04-18T09:36:41.617Z,102076.28
2024-04-18T09:39:18.482Z,102071.31
2024-04-18T09:41:54.932Z,102073.94
2024-04-18T09:44:26.022Z,102066.97
2024-04-18T09:46:56.350Z,102057.13
2024-04-18T09:49:24.888Z,102071.63
2024-04-18T09:51:58.801Z,102076.47
2024-04-18T09:54:27.229Z,102058.78
2024-04-18T09:56:59.901Z,102083.88
2024-04-18T09:59:29.444Z,102064.50
2024-04-18T10:01:59.318Z,102070.88
2024-04-18T10:04:28.071Z,102078.81
2024-04-18T10:07:00.087Z,102076.28
2024-04-18T10:09:30.129Z,102089.44
2024-04-18T10:11:59.275Z,102076.56
2024-04-18T10:14:31.692Z,102090.25
2024-04-18T10:16:59.364Z,102097.09
2024-04-18T10:19:32.731Z,102086.25
2024-04-18T10:22:17.202Z,102091.94
2024-04-18T10:24:52.370Z,102080.66
2024-04-18T10:27:24.206Z,102092.09
2024-04-18T10:30:02.637Z,102092.50
2024-04-18T10:32:32.876Z,102091.25
2024-04-18T10:35:01.563Z,102096.06
2024-04-18T10:37:32.298Z,102087.19
2024-04-18T10:40:00.768Z,102083.19
2024-04-18T10:42:28.789Z,102087.41
2024-04-18T10:44:57.814Z,102068.69
2024-04-18T10:47:25.741Z,102071.50
2024-04-18T10:49:54.198Z,102091.28
2024-04-18T10:52:23.315Z,102073.44
2024-04-18T10:55:00.374Z,102070.63
2024-04-18T10:57:28.478Z,102082.28
2024-04-18T11:00:03.305Z,102081.59
2024-04-18T11:02:33.779Z,102076.75
2024-04-18T11:05:07.084Z,102081.59
2024-04-18T11:07:40.720Z,102067.44
2024-04-18T11:10:14.731Z,102088.47
2024-04-18T11:12:45.722Z,102065.19
2024-04-18T11:15:17.798Z,102079.69
2024-04-18T11:17:49.250Z,102065.19
2024-04-18T11:20:19.763Z,102060.44
2024-04-18T11:22:57.215Z,102066.03
2024-04-18T11:25:34.944Z,102090.72
2024-04-18T11:28:11.659Z,102077.88
2024-04-18T11:30:44.154Z,102068.56
2024-04-18T11:33:25.656Z,102077.88
2024-04-18T11:35:56.867Z,102076.16
2024-04-18T11:38:30.504Z,102069.13
2024-04-18T11:41:02.655Z,102079.53
2024-04-18T11:43:33.334Z,102068.06
2024-04-18T11:46:01.642Z,102081.09
2024-04-18T11:48:29.781Z,102068.41
2024-04-18T11:50:57.920Z,102079.31
2024-04-18T11:53:28.620Z,102092.56
2024-04-18T11:56:09.555Z,102089.16
2024-04-18T11:58:42.213Z,102068.63
2024-04-18T12:01:15.560Z,102069.78
2024-04-18T12:03:44.171Z,102080.38
2024-04-18T12:06:12.319Z,102096.72
2024-04-18T12:08:46.310Z,102105.78
2024-04-18T12:11:25.092Z,102101.19
2024-04-18T12:13:53.970Z,102111.03
2024-04-18T12:16:26.605Z,102105.03
2024-04-18T12:18:58.551Z,102114.50
2024-04-18T12:21:29.515Z,102091.84
2024-04-18T12:24:00.314Z,102108.88
2024-04-18T12:26:36.566Z,102083.47
2024-04-18T12:29:04.789Z,102096.06
2024-04-18T12:31:36.003Z,102093.19
2024-04-18T12:34:03.964Z,102091.97
2024-04-18T12:36:36.080Z,102104.63
2024-04-18T12:39:07.448Z,102091.63
2024-04-18T12:41:41.017Z,102106.41
2024-04-18T12:44:28.910Z,102103.94
2024-04-18T12:46:58.089Z,102110.34
2024-04-18T12:49:26.334Z,102085.81
2024-04-18T12:51:57.476Z,102102.81
2024-04-18T12:54:27.827Z,102088.63
2024-04-18T12:57:02.031Z,102097.50
2024-04-18T12:59:30.541Z,102103.81
2024-04-18T13:01:58.787Z,102107.53
2024-04-18T13:04:32.768Z,102072.88
2024-04-18T13:07:03.730Z,102091.13
2024-04-18T13:09:39.493Z,102080.19
2024-04-18T13:12:14.513Z,102086.53
2024-04-18T13:14:42.987Z,102063.47
2024-04-18T13:17:14.353Z,102072.41
2024-04-18T13:19:45.330Z,102062.75
2024-04-18T13:22:13.497Z,102078.88
2024-04-18T13:24:41.600Z,102063.97
2024-04-18T13:27:12.320Z,102085.38
2024-04-18T13:29:45.366Z,102077.88
2024-04-18T13:32:13.885Z,102060.72
2024-04-18T13:34:43.274Z,102080.72
2024-04-18T13:37:14.247Z,102094.81
2024-04-18T13:39:45.840Z,102100.84
2024-04-18T13:42:20.053Z,102103.50
2024-04-18T13:44:47.891Z,102100.59
2024-04-18T13:47:15.777Z,102064.91
2024-04-18T13:49:44.437Z,102083.28
2024-04-18T13:52:15.824Z,102100.84
2024-04-18T13:54:49.552Z,102079.63
2024-04-18T13:57:20.433Z,102082.00
2024-04-18T13:59:51.051Z,102078.81
2024-04-18T14:02:19.202Z,102066.88
2024-04-18T14:04:50.758Z,102079.28
2024-04-18T14:07:23.702Z,102064.34
2024-04-18T14:09:56.375Z,102062.53
2024-04-18T14:12:28.036Z,102087.63
2024-04-18T14:15:07.623Z,102072.31
2024-04-18T14:17:54.381Z,102071.44
2024-04-18T14:20:26.059Z,102073.94
2024-04-18T14:22:54.013Z,102073.31
2024-04-18T14:25:22.902Z,102060.13
2024-04-18T14:27:53.618Z,102060.69
2024-04-18T14:30:21.612Z,102050.94
2024-04-18T14:32:49.558Z,102046.50
2024-04-18T14:35:18.075Z,102056.41
2024-04-18T14:37:49.341Z,102054.72
2024-04-18T14:40:17.603Z,102051.22
2024-04-18T14:42:45.883Z,102051.34
2024-04-18T14:45:16.464Z,102055.59
2024-04-18T14:47:46.928Z,102044.44
2024-04-18T14:50:18.746Z,102056.00
2024-04-18T14:52:46.933Z,102055.72
2024-04-18T14:55:17.550Z,102049.03
2024-04-18T14:57:48.086Z,102056.44
2024-04-18T15:00:27.317Z,102042.22
2024-04-18T15:02:56.270Z,102036.94
2024-04-18T15:05:25.206Z,102052.53
2024-04-18T15:07:53.279Z,102050.44
2024-04-18T15:10:30.367Z,102047.50
2024-04-18T15:13:01.371Z,102052.53
2024-04-18T15:15:31.876Z,102060.03
2024-04-18T15:17:59.912Z,102063.53
2024-04-18T15:20:31.455Z,102052.81
2024-04-18T15:23:05.234Z,102036.66
2024-04-18T15:25:35.829Z,102053.19
2024-04-18T15:28:04.376Z,102055.59
2024-04-18T15:30:38.013Z,102045.84
2024-04-18T15:33:06.819Z,102052.78
2024-04-18T15:35:37.556Z,102055.72
2024-04-18T15:38:05.939Z,102042.50
2024-04-18T15:40:36.722Z,102030.50
2024-04-18T15:43:07.359Z,102029.41
2024-04-18T15:45:41.354Z,102034.56
2024-04-18T15:48:13.440Z,102021.47
2024-04-18T15:50:41.759Z,102037.31
2024-04-18T15:53:09.806Z,101995.16
2024-04-18T15:55:38.059Z,102012.25
2024-04-18T15:58:08.856Z,102011.41
2024-04-18T16:00:36.878Z,102022.84
2024-04-18T16:03:07.672Z,102014.47
2024-04-18T16:05:35.448Z,102024.81
2024-04-18T16:08:03.418Z,102009.19
2024-04-18T16:10:38.039Z,102027.03
2024-04-18T16:13:06.088Z,102028.16
2024-04-18T16:15:35.290Z,102027.03
2024-04-18T16:18:05.690Z,102011.97
2024-04-18T16:20:36.662Z,102011.44
2024-04-18T16:23:08.013Z,102008.94
2024-04-18T16:25:40.491Z,101999.16
2024-04-18T16:28:12.467Z,101992.50
2024-04-18T16:30:42.683Z,102012.09
2024-04-18T16:33:13.591Z,101986.91
2024-04-18T16:35:44.708Z,101987.34
2024-04-18T16:38:12.651Z,101986.63
2024-04-18T16:40:49.680Z,101980.00
2024-04-18T16:43:17.983Z,101973.38
2024-04-18T16:45:50.061Z,101977.13
2024-04-18T16:48:18.258Z,101985.94
2024-04-18T16:50:49.747Z,101991.19
2024-04-18T16:53:17.718Z,101973.22
2024-04-18T16:55:49.615Z,101977.88
2024-04-18T16:58:20.007Z,101981.31
2024-04-18T17:00:48.288Z,101977.69
2024-04-18T17:03:17.250Z,101953.41
2024-04-18T17:08:32.302Z,101959.94
2024-04-18T17:11:02.957Z,101964.53
2024-04-18T17:13:31.219Z,101970.66
2024-04-18T17:16:04.110Z,101958.69
2024-04-18T17:18:37.921Z,101951.44
2024-04-18T17:21:11.541Z,101934.47
2024-04-18T17:23:43.187Z,101949.50
2024-04-18T17:26:12.543Z,101951.03
2024-04-18T17:28:41.638Z,101938.63
2024-04-18T17:31:13.467Z,101930.56
2024-04-18T17:33:42.431Z,101931.22
2024-04-18T17:36:10.537Z,101928.06
2024-04-18T17:38:43.362Z,101933.47
2024-04-18T17:41:14.323Z,101928.00
2024-04-18T17:43:48.261Z,101926.06
2024-04-18T17:46:23.675Z,101926.78
2024-04-18T17:48:54.416Z,101914.22
2024-04-18T17:51:22.896Z,101916.44
2024-04-18T17:53:57.932Z,101932.19
2024-04-18T17:56:25.782Z,101919.56
2024-04-18T17:58:54.010Z,101915.78
2024-04-18T18:01:22.144Z,101914.53
2024-04-18T18:03:50.056Z,101909.81
2024-04-18T18:06:21.580Z,101905.06
2024-04-18T18:08:49.726Z,101918.72
2024-04-18T18:11:23.686Z,101921.88
2024-04-18T18:13:53.810Z,101908.25
2024-04-18T18:16:25.190Z,101900.97
2024-04-18T18:18:53.614Z,101906.00
2024-04-18T18:21:24.885Z,101905.41
2024-04-18T18:23:52.594Z,101908.31
2024-04-18T18:26:23.381Z,101905.69
2024-04-18T18:28:51.611Z,101891.19
2024-04-18T18:31:19.184Z,101896.91
2024-04-18T18:33:51.969Z,101874.06
2024-04-18T18:36:22.621Z,101895.69
2024-04-18T18:38:50.049Z,101888.16
2024-04-18T18:41:17.997Z,101878.34
2024-04-18T18:43:48.531Z,101873.34
2024-04-18T18:46:16.347Z,101883.91
2024-04-18T18:48:43.963Z,101887.25
2024-04-18T18:51:12.781Z,101889.31
2024-04-18T18:53:42.150Z,101886.69
2024-04-18T18:56:15.931Z,101868.91
2024-04-18T18:58:45.031Z,101849.13
2024-04-18T19:01:16.028Z,101868.75
2024-04-18T19:03:45.030Z,101869.72
2024-04-18T19:06:15.327Z,101867.09
2024-04-18T19:08:43.059Z,101874.19
2024-04-18T19:11:11.108Z,101864.31
2024-04-18T19:13:41.862Z,101854.84
2024-04-18T19:16:18.041Z,101846.94
2024-04-18T19:18:46.293Z,101859.63
2024-04-18T19:21:14.339Z,101849.19
2024-04-18T19:23:45.654Z,101829.38
2024-04-18T19:26:14.224Z,101841.09
2024-04-18T19:28:43.041Z,101829.97
2024-04-18T19:31:11.840Z,101836.66
2024-04-18T19:33:42.343Z,101824.16
2024-04-18T19:36:10.706Z,101813.88
2024-04-18T19:38:46.676Z,101821.84
2024-04-18T19:41:14.610Z,101812.59
2024-04-18T19:43:42.556Z,101812.75
2024-04-18T19:46:12.903Z,101815.28
2024-04-18T19:48:43.711Z,101801.09
2024-04-18T19:51:14.315Z,101805.81
2024-04-18T19:53:42.748Z,101791.91
2024-04-18T19:56:11.602Z,101786.38
2024-04-18T19:58:44.450Z,101764.69
2024-04-18T20:01:12.604Z,101774.03
2024-04-18T20:03:43.734Z,101767.78
2024-04-18T20:06:12.049Z,101770.28
2024-04-18T20:08:41.862Z,101749.56
2024-04-18T20:11:11.435Z,101757.09
2024-04-18T20:13:39.105Z,101762.22
2024-04-18T20:16:09.419Z,101738.19
2024-04-18T20:18:37.476Z,101745.84
2024-04-18T20:21:12.830Z,101739.03
2024-04-18T20:23:41.091Z,101728.19
2024-04-18T20:26:12.492Z,101727.63
2024-04-18T20:28:41.838Z,101720.53
2024-04-18T20:31:09.725Z,101703.03
2024-04-18T20:33:37.757Z,101713.75
2024-04-18T20:36:12.417Z,101713.06
2024-04-18T20:38:40.515Z,101717.75
2024-04-18T20:41:11.874Z,101708.59
2024-04-18T20:43:40.632Z,101699.72
2024-04-18T20:46:08.171Z,101706.66
2024-04-18T20:48:37.963Z,101689.97
2024-04-18T20:51:14.200Z,101685.09
2024-04-18T20:53:42.376Z,101679.00
2024-04-18T20:56:10.898Z,101690.28
2024-04-18T20:58:41.794Z,101680.28
2024-04-18T21:01:12.161Z,101693.75
2024-04-18T21:03:48.002Z,101680.25
2024-04-18T21:06:18.593Z,101682.50
2024-04-18T21:08:48.827Z,101673.31
2024-04-18T21:11:16.882Z,101686.38
2024-04-18T21:13:47.584Z,101662.31
2024-04-18T21:16:15.660Z,101686.91
2024-04-18T21:18:43.658Z,101675.66
2024-04-18T21:21:14.277Z,101668.44
2024-04-18T21:23:46.835Z,101665.94
2024-04-18T21:26:17.723Z,101650.06
2024-04-18T21:28:45.664Z,101630.06
2024-04-18T21:31:16.068Z,101627.56
2024-04-18T21:33:44.531Z,101615.47
2024-04-18T21:36:15.585Z,101601.06
2024-04-18T21:38:59.760Z,101591.63
2024-04-18T21:41:29.214Z,101605.97
2024-04-18T21:43:58.175Z,101603.59
2024-04-18T21:46:27.901Z,101573.72
2024-04-18T21:48:55.741Z,101588.59
2024-04-18T21:51:27.703Z,101575.94
2024-04-18T21:53:58.653Z,101573.03
2024-04-18T21:56:27.027Z,101585.81
2024-04-18T21:58:55.000Z,101582.44
2024-04-18T22:01:23.177Z,101604.50
2024-04-18T22:03:52.057Z,101589.09
2024-04-18T22:06:21.155Z,101601.41
2024-04-18T22:08:51.371Z,101603.22
2024-04-18T22:11:24.899Z,101583.19
2024-04-18T22:13:52.755Z,101579.56
2024-04-18T22:16:20.771Z,101579.06
2024-04-18T22:18:48.421Z,101570.84
2024-04-18T22:21:17.783Z,101559.84
2024-04-18T22:23:47.339Z,101560.53
2024-04-18T22:26:17.047Z,101550.53
2024-04-18T22:28:47.727Z,101555.28
2024-04-18T22:31:26.544Z,101544.03
2024-04-18T22:34:00.472Z,101568.06
2024-04-18T22:36:35.498Z,101542.25
2024-04-18T22:39:04.117Z,101537.28
2024-04-18T22:41:38.371Z,101540.31
2024-04-18T22:44:17.741Z,101539.81
2024-04-18T22:46:45.579Z,101533.13
2024-04-18T22:49:13.473Z,101535.47
2024-04-18T22:51:41.666Z,101534.41
2024-04-18T22:54:09.366Z,101524.69
2024-04-18T22:56:38.588Z,101515.97
2024-04-18T22:59:07.038Z,101497.63
2024-04-18T23:01:40.287Z,101510.25
2024-04-18T23:04:08.421Z,101496.56
2024-04-18T23:06:39.069Z,101494.63
2024-04-18T23:09:10.656Z,101481.00
2024-04-18T23:11:38.866Z,101473.50
2024-04-18T23:14:07.152Z,101487.56
2024-04-18T23:16:42.716Z,101474.25
2024-04-18T23:19:16.221Z,101469.09
2024-04-18T23:21:53.819Z,101465.38
2024-04-18T23:24:21.608Z,101460.09
2024-04-18T23:26:49.905Z,101456.38
2024-04-18T23:29:17.346Z,101448.88
2024-04-18T23:31:47.826Z,101433.16
2024-04-18T23:34:15.949Z,101430.00
2024-04-18T23:36:43.607Z,101428.34
2024-04-18T23:39:22.956Z,101411.41
2024-04-18T23:41:53.917Z,101396.56
2024-04-18T23:44:21.922Z,101413.50
2024-04-18T23:46:54.158Z,101420.25
2024-04-18T23:49:22.203Z,101390.88
2024-04-18T23:51:52.840Z,101396.97
2024-04-18T23:54:25.334Z,101377.41
2024-04-18T23:57:05.482Z,101390.59
2024-04-18T23:59:33.540Z,101375.59
